sensor_id;sensor_type;location;lat;lon;timestamp;pressure;altitude;pressure_sealevel;temperature;humidity
8039;BME280;4062;49.844;8.120;2022-12-18T00:01:38;100547.97;;;13.04;55.85
8039;BME280;4062;49.844;8.120;2022-12-18T00:03:38;100540.03;;;13.04;55.95
8039;BME280;4062;49.844;8.120;2022-12-18T00:05:50;100545.31;;;13.04;55.86
8039;BME280;4062;49.844;8.120;2022-12-18T00:07:51;100541.81;;;13.04;55.85
8039;BME280;4062;49.844;8.120;2022-12-18T00:09:52;100544.44;;;13.05;55.78
8039;BME280;4062;49.844;8.120;2022-12-18T00:11:53;100546.19;;;13.05;55.83
8039;BME280;4062;49.844;8.120;2022-12-18T00:13:56;100546.19;;;13.05;55.60
8039;BME280;4062;49.844;8.120;2022-12-18T00:16:07;100547.94;;;13.06;55.84
8039;BME280;4062;49.844;8.120;2022-12-18T00:18:08;100554.16;;;13.05;55.89
8039;BME280;4062;49.844;8.120;2022-12-18T00:20:10;100555.94;;;13.04;55.96
8039;BME280;4062;49.844;8.120;2022-12-18T00:22:10;100558.59;;;13.04;55.84
8039;BME280;4062;49.844;8.120;2022-12-18T00:24:12;100556.81;;;13.05;55.80
8039;BME280;4062;49.844;8.120;2022-12-18T00:26:28;100555.94;;;13.04;55.56
8039;BME280;4062;49.844;8.120;2022-12-18T00:28:30;100550.63;;;13.04;55.85
8039;BME280;4062;49.844;8.120;2022-12-18T00:30:30;100555.94;;;13.04;55.83
8039;BME280;4062;49.844;8.120;2022-12-18T00:32:32;100557.72;;;13.04;55.84
8039;BME280;4062;49.844;8.120;2022-12-18T00:34:33;100555.03;;;13.05;55.77
8039;BME280;4062;49.844;8.120;2022-12-18T00:36:34;100557.69;;;13.05;55.76
8039;BME280;4062;49.844;8.120;2022-12-18T00:38:35;100555.03;;;13.05;55.89
8039;BME280;4062;49.844;8.120;2022-12-18T00:40:36;100558.59;;;13.04;55.84
8039;BME280;4062;49.844;8.120;2022-12-18T00:42:37;100560.34;;;13.05;55.75
8039;BME280;4062;49.844;8.120;2022-12-18T00:44:56;100557.69;;;13.05;55.85
8039;BME280;4062;49.844;8.120;2022-12-18T00:46:56;100557.69;;;13.05;55.89
8039;BME280;4062;49.844;8.120;2022-12-18T00:48:58;100556.81;;;13.05;55.70
8039;BME280;4062;49.844;8.120;2022-12-18T00:50:58;100546.19;;;13.05;55.83
8039;BME280;4062;49.844;8.120;2022-12-18T00:52:59;100554.16;;;13.05;56.00
8039;BME280;4062;49.844;8.120;2022-12-18T00:55:00;100553.28;;;13.04;55.91
8039;BME280;4062;49.844;8.120;2022-12-18T00:57:01;100552.41;;;13.04;55.73
8039;BME280;4062;49.844;8.120;2022-12-18T00:59:01;100562.09;;;13.05;55.81
8039;BME280;4062;49.844;8.120;2022-12-18T01:01:05;100560.34;;;13.05;55.87
8039;BME280;4062;49.844;8.120;2022-12-18T01:03:06;100566.56;;;13.04;55.74
8039;BME280;4062;49.844;8.120;2022-12-18T01:05:09;100571.84;;;13.04;55.81
8039;BME280;4062;49.844;8.120;2022-12-18T01:07:10;100563.91;;;13.04;55.67
8039;BME280;4062;49.844;8.120;2022-12-18T01:09:11;100553.31;;;13.03;55.71
8039;BME280;4062;49.844;8.120;2022-12-18T01:11:21;100559.50;;;13.03;55.92
8039;BME280;4062;49.844;8.120;2022-12-18T01:13:22;100555.06;;;13.04;55.92
8039;BME280;4062;49.844;8.120;2022-12-18T01:15:23;100563.91;;;13.04;55.65
8039;BME280;4062;49.844;8.120;2022-12-18T01:17:24;100551.53;;;13.03;55.63
8039;BME280;4062;49.844;8.120;2022-12-18T01:19:24;100558.59;;;13.04;55.82
8039;BME280;4062;49.844;8.120;2022-12-18T01:21:25;100555.94;;;13.04;55.76
8039;BME280;4062;49.844;8.120;2022-12-18T01:23:26;100561.22;;;13.06;55.90
8039;BME280;4062;49.844;8.120;2022-12-18T01:25:26;100563.91;;;13.04;55.82
8039;BME280;4062;49.844;8.120;2022-12-18T01:27:27;100563.91;;;13.04;55.62
8039;BME280;4062;49.844;8.120;2022-12-18T01:29:28;100568.34;;;13.04;56.00
8039;BME280;4062;49.844;8.120;2022-12-18T01:31:32;100584.25;;;13.04;55.93
8039;BME280;4062;49.844;8.120;2022-12-18T01:33:33;100589.53;;;13.05;55.77
8039;BME280;4062;49.844;8.120;2022-12-18T01:35:41;100581.59;;;13.04;55.73
8039;BME280;4062;49.844;8.120;2022-12-18T01:37:42;100586.00;;;13.03;55.67
8039;BME280;4062;49.844;8.120;2022-12-18T01:39:43;100586.91;;;13.04;55.82
8039;BME280;4062;49.844;8.120;2022-12-18T01:41:44;100585.16;;;13.03;55.78
8039;BME280;4062;49.844;8.120;2022-12-18T01:44:50;100589.56;;;13.04;55.82
8039;BME280;4062;49.844;8.120;2022-12-18T01:46:54;100593.09;;;13.04;55.84
8039;BME280;4062;49.844;8.120;2022-12-18T01:49:00;100596.63;;;13.03;55.70
8039;BME280;4062;49.844;8.120;2022-12-18T01:51:02;100593.97;;;13.03;55.77
8039;BME280;4062;49.844;8.120;2022-12-18T01:53:09;100591.31;;;13.03;55.69
8039;BME280;4062;49.844;8.120;2022-12-18T01:55:13;100588.66;;;13.03;55.52
8039;BME280;4062;49.844;8.120;2022-12-18T01:57:15;100582.50;;;13.03;55.70
8039;BME280;4062;49.844;8.120;2022-12-18T01:59:16;100565.69;;;13.02;55.72
8039;BME280;4062;49.844;8.120;2022-12-18T02:01:18;100580.72;;;13.03;55.83
8039;BME280;4062;49.844;8.120;2022-12-18T02:03:20;100581.59;;;13.04;55.76
8039;BME280;4062;49.844;8.120;2022-12-18T02:06:08;100585.16;;;13.03;55.93
8039;BME280;4062;49.844;8.120;2022-12-18T02:08:31;100592.22;;;13.04;55.77
8039;BME280;4062;49.844;8.120;2022-12-18T02:10:53;100578.06;;;13.03;55.82
8039;BME280;4062;49.844;8.120;2022-12-18T02:13:30;100578.06;;;13.03;55.72
8039;BME280;4062;49.844;8.120;2022-12-18T02:15:41;100578.97;;;13.02;55.82
8039;BME280;4062;49.844;8.120;2022-12-18T02:17:58;100576.31;;;13.02;55.77
8039;BME280;4062;49.844;8.120;2022-12-18T02:27:05;100566.59;;;13.03;55.80
8039;BME280;4062;49.844;8.120;2022-12-18T02:29:16;100558.63;;;13.01;55.70
8039;BME280;4062;49.844;8.120;2022-12-18T02:31:24;100562.13;;;13.03;55.69
8039;BME280;4062;49.844;8.120;2022-12-18T02:33:28;100564.81;;;13.02;55.85
8039;BME280;4062;49.844;8.120;2022-12-18T02:35:31;100566.59;;;13.03;55.71
8039;BME280;4062;49.844;8.120;2022-12-18T02:37:34;100554.19;;;13.03;55.79
8039;BME280;4062;49.844;8.120;2022-12-18T02:39:39;100548.00;;;13.03;55.67
8039;BME280;4062;49.844;8.120;2022-12-18T02:41:40;100541.81;;;13.02;55.60
8039;BME280;4062;49.844;8.120;2022-12-18T02:43:49;100552.44;;;13.02;55.70
8039;BME280;4062;49.844;8.120;2022-12-18T02:45:59;100551.56;;;13.02;55.70
8039;BME280;4062;49.844;8.120;2022-12-18T02:48:01;100557.72;;;13.02;55.80
8039;BME280;4062;49.844;8.120;2022-12-18T02:50:15;100555.06;;;13.02;55.78
8039;BME280;4062;49.844;8.120;2022-12-18T02:52:49;100552.41;;;13.04;55.66
8039;BME280;4062;49.844;8.120;2022-12-18T02:55:35;100551.53;;;13.03;55.71
8039;BME280;4062;49.844;8.120;2022-12-18T02:58:14;100554.22;;;13.02;55.87
8039;BME280;4062;49.844;8.120;2022-12-18T03:03:40;100545.38;;;13.01;55.83
8039;BME280;4062;49.844;8.120;2022-12-18T03:05:57;100540.06;;;13.01;55.78
8039;BME280;4062;49.844;8.120;2022-12-18T03:08:30;100549.78;;;13.02;55.70
8039;BME280;4062;49.844;8.120;2022-12-18T03:10:41;100542.72;;;13.01;55.83
8039;BME280;4062;49.844;8.120;2022-12-18T03:12:57;100551.56;;;13.02;55.71
8039;BME280;4062;49.844;8.120;2022-12-18T03:15:10;100558.63;;;13.03;55.76
8039;BME280;4062;49.844;8.120;2022-12-18T03:17:16;100548.00;;;13.01;55.65
8039;BME280;4062;49.844;8.120;2022-12-18T03:19:23;100537.41;;;13.01;55.78
8039;BME280;4062;49.844;8.120;2022-12-18T03:21:32;100526.78;;;13.01;55.58
8039;BME280;4062;49.844;8.120;2022-12-18T03:23:42;100538.31;;;13.02;55.76
8039;BME280;4062;49.844;8.120;2022-12-18T03:25:45;100543.59;;;13.02;55.73
8039;BME280;4062;49.844;8.120;2022-12-18T03:27:51;100559.50;;;13.03;55.75
8039;BME280;4062;49.844;8.120;2022-12-18T03:30:08;100554.19;;;13.03;55.73
8039;BME280;4062;49.844;8.120;2022-12-18T03:32:16;100549.78;;;13.02;55.76
8039;BME280;4062;49.844;8.120;2022-12-18T03:34:25;100545.38;;;13.01;55.79
8039;BME280;4062;49.844;8.120;2022-12-18T03:36:28;100548.00;;;13.03;55.80
8039;BME280;4062;49.844;8.120;2022-12-18T03:38:28;100550.66;;;13.03;55.80
8039;BME280;4062;49.844;8.120;2022-12-18T03:40:53;100553.31;;;13.01;55.68
8039;BME280;4062;49.844;8.120;2022-12-18T03:43:07;100556.88;;;13.02;55.67
8039;BME280;4062;49.844;8.120;2022-12-18T03:45:12;100556.88;;;13.02;55.64
8039;BME280;4062;49.844;8.120;2022-12-18T03:47:26;100555.06;;;13.02;55.79
8039;BME280;4062;49.844;8.120;2022-12-18T03:52:01;100562.13;;;13.03;55.89
8039;BME280;4062;49.844;8.120;2022-12-18T03:54:05;100561.28;;;13.01;55.74
8039;BME280;4062;49.844;8.120;2022-12-18T03:56:08;100556.88;;;13.02;55.83
8039;BME280;4062;49.844;8.120;2022-12-18T03:58:12;100554.22;;;13.02;55.70
8039;BME280;4062;49.844;8.120;2022-12-18T04:00:17;100553.31;;;13.01;55.77
8039;BME280;4062;49.844;8.120;2022-12-18T04:02:18;100540.94;;;13.02;55.73
8039;BME280;4062;49.844;8.120;2022-12-18T04:04:21;100543.59;;;13.02;55.69
8039;BME280;4062;49.844;8.120;2022-12-18T04:06:24;100538.31;;;13.02;55.83
8039;BME280;4062;49.844;8.120;2022-12-18T04:08:25;100539.16;;;13.02;55.75
8039;BME280;4062;49.844;8.120;2022-12-18T04:10:26;100544.47;;;13.02;55.69
8039;BME280;4062;49.844;8.120;2022-12-18T04:12:29;100539.19;;;13.01;55.92
8039;BME280;4062;49.844;8.120;2022-12-18T04:14:29;100537.41;;;13.01;55.68
8039;BME280;4062;49.844;8.120;2022-12-18T04:16:30;100534.75;;;13.01;55.57
8039;BME280;4062;49.844;8.120;2022-12-18T04:18:31;100534.75;;;13.01;55.64
8039;BME280;4062;49.844;8.120;2022-12-18T04:20:32;100526.78;;;13.01;55.73
8039;BME280;4062;49.844;8.120;2022-12-18T04:22:32;100528.59;;;13.01;55.77
8039;BME280;4062;49.844;8.120;2022-12-18T04:24:33;100525.91;;;13.02;55.75
8039;BME280;4062;49.844;8.120;2022-12-18T04:26:34;100529.44;;;13.01;55.80
8039;BME280;4062;49.844;8.120;2022-12-18T04:28:34;100527.69;;;13.02;55.83
8039;BME280;4062;49.844;8.120;2022-12-18T04:30:35;100534.75;;;13.01;55.58
8039;BME280;4062;49.844;8.120;2022-12-18T04:32:36;100532.09;;;13.01;55.73
8039;BME280;4062;49.844;8.120;2022-12-18T04:34:36;100536.53;;;13.01;55.74
8039;BME280;4062;49.844;8.120;2022-12-18T04:36:37;100542.72;;;13.01;55.68
8039;BME280;4062;49.844;8.120;2022-12-18T04:38:38;100539.19;;;13.01;55.67
8039;BME280;4062;49.844;8.120;2022-12-18T04:40:39;100540.06;;;13.01;55.86
8039;BME280;4062;49.844;8.120;2022-12-18T04:42:40;100540.06;;;13.01;55.78
8039;BME280;4062;49.844;8.120;2022-12-18T04:44:41;100533.84;;;13.02;55.59
8039;BME280;4062;49.844;8.120;2022-12-18T04:46:42;100535.66;;;13.00;55.68
8039;BME280;4062;49.844;8.120;2022-12-18T04:48:46;100533.00;;;13.02;55.80
8039;BME280;4062;49.844;8.120;2022-12-18T04:50:47;100535.59;;;13.03;55.72
8039;BME280;4062;49.844;8.120;2022-12-18T04:52:48;100538.31;;;13.02;55.80
8039;BME280;4062;49.844;8.120;2022-12-18T04:54:49;100546.25;;;13.00;55.87
8039;BME280;4062;49.844;8.120;2022-12-18T04:56:50;100552.44;;;13.02;55.76
8039;BME280;4062;49.844;8.120;2022-12-18T04:58:50;100555.13;;;13.01;55.70
8039;BME280;4062;49.844;8.120;2022-12-18T05:00:51;100555.97;;;13.01;55.72
8039;BME280;4062;49.844;8.120;2022-12-18T05:02:52;100553.34;;;13.00;55.71
8039;BME280;4062;49.844;8.120;2022-12-18T05:04:52;100550.69;;;13.00;55.82
8039;BME280;4062;49.844;8.120;2022-12-18T05:06:53;100560.41;;;13.01;55.78
8039;BME280;4062;49.844;8.120;2022-12-18T05:08:54;100562.19;;;13.00;55.81
8039;BME280;4062;49.844;8.120;2022-12-18T05:11:11;100567.47;;;13.00;55.63
8039;BME280;4062;49.844;8.120;2022-12-18T05:13:12;100563.06;;;13.01;55.79
8039;BME280;4062;49.844;8.120;2022-12-18T05:15:12;100556.00;;;13.00;55.68
8039;BME280;4062;49.844;8.120;2022-12-18T05:17:13;100554.22;;;13.00;55.71
8039;BME280;4062;49.844;8.120;2022-12-18T05:19:14;100544.53;;;12.99;55.82
8039;BME280;4062;49.844;8.120;2022-12-18T05:21:14;100538.31;;;13.00;55.81
8039;BME280;4062;49.844;8.120;2022-12-18T05:23:15;100539.22;;;12.99;55.74
8039;BME280;4062;49.844;8.120;2022-12-18T05:25:16;100539.22;;;12.99;55.71
8039;BME280;4062;49.844;8.120;2022-12-18T05:27:17;100539.22;;;12.99;55.92
8039;BME280;4062;49.844;8.120;2022-12-18T05:29:19;100539.22;;;12.99;55.79
8039;BME280;4062;49.844;8.120;2022-12-18T05:31:20;100540.09;;;13.00;55.86
8039;BME280;4062;49.844;8.120;2022-12-18T05:33:23;100542.75;;;13.00;55.68
8039;BME280;4062;49.844;8.120;2022-12-18T05:35:24;100544.53;;;12.99;55.95
8039;BME280;4062;49.844;8.120;2022-12-18T05:37:24;100539.22;;;12.99;55.65
8039;BME280;4062;49.844;8.120;2022-12-18T05:39:25;100529.47;;;13.00;55.70
8039;BME280;4062;49.844;8.120;2022-12-18T05:41:26;100532.13;;;13.00;55.78
8039;BME280;4062;49.844;8.120;2022-12-18T05:43:29;100540.09;;;13.00;55.66
8039;BME280;4062;49.844;8.120;2022-12-18T05:45:30;100540.09;;;13.00;55.66
8039;BME280;4062;49.844;8.120;2022-12-18T05:47:31;100536.56;;;12.99;55.74
8039;BME280;4062;49.844;8.120;2022-12-18T05:49:31;100550.69;;;13.00;55.74
8039;BME280;4062;49.844;8.120;2022-12-18T05:51:32;100536.56;;;12.99;55.66
8039;BME280;4062;49.844;8.120;2022-12-18T05:53:33;100533.94;;;12.99;55.60
8039;BME280;4062;49.844;8.120;2022-12-18T05:55:35;100544.53;;;12.99;55.80
8039;BME280;4062;49.844;8.120;2022-12-18T05:57:37;100539.22;;;12.99;55.65
8039;BME280;4062;49.844;8.120;2022-12-18T05:59:37;100548.06;;;13.00;55.77
8039;BME280;4062;49.844;8.120;2022-12-18T06:01:38;100552.50;;;12.99;55.68
8039;BME280;4062;49.844;8.120;2022-12-18T06:03:39;100548.94;;;12.98;55.76
8039;BME280;4062;49.844;8.120;2022-12-18T06:05:44;100563.09;;;12.99;55.89
8039;BME280;4062;49.844;8.120;2022-12-18T06:07:45;100559.56;;;12.98;55.67
8039;BME280;4062;49.844;8.120;2022-12-18T06:09:46;100563.09;;;12.99;55.72
8039;BME280;4062;49.844;8.120;2022-12-18T06:11:47;100558.66;;;13.00;55.59
8039;BME280;4062;49.844;8.120;2022-12-18T06:13:51;100561.31;;;13.00;55.40
8039;BME280;4062;49.844;8.120;2022-12-18T06:15:52;100558.69;;;12.98;55.55
8039;BME280;4062;49.844;8.120;2022-12-18T06:17:53;100561.34;;;12.98;55.66
8039;BME280;4062;49.844;8.120;2022-12-18T06:19:54;100563.09;;;12.97;55.75
8039;BME280;4062;49.844;8.120;2022-12-18T06:21:54;100575.47;;;12.98;55.67
8039;BME280;4062;49.844;8.120;2022-12-18T06:23:55;100576.38;;;12.99;55.98
8039;BME280;4062;49.844;8.120;2022-12-18T06:25:56;100578.13;;;12.98;55.50
8039;BME280;4062;49.844;8.120;2022-12-18T06:27:57;100583.44;;;12.98;55.75
8039;BME280;4062;49.844;8.120;2022-12-18T06:29:57;100590.50;;;13.00;55.84
8039;BME280;4062;49.844;8.120;2022-12-18T06:31:58;100587.84;;;13.00;55.80
8039;BME280;4062;49.844;8.120;2022-12-18T06:34:02;100586.97;;;12.99;55.58
8039;BME280;4062;49.844;8.120;2022-12-18T06:36:10;100588.75;;;12.98;55.63
8039;BME280;4062;49.844;8.120;2022-12-18T06:38:11;100602.91;;;12.99;55.60
8039;BME280;4062;49.844;8.120;2022-12-18T06:40:11;100604.63;;;13.00;55.53
8039;BME280;4062;49.844;8.120;2022-12-18T06:42:12;100608.22;;;12.99;55.64
8039;BME280;4062;49.844;8.120;2022-12-18T06:44:13;100621.47;;;12.99;55.82
8039;BME280;4062;49.844;8.120;2022-12-18T06:46:14;100617.91;;;12.98;55.66
8039;BME280;4062;49.844;8.120;2022-12-18T06:48:15;100609.97;;;12.98;55.83
8039;BME280;4062;49.844;8.120;2022-12-18T06:50:15;100611.75;;;12.98;55.62
8039;BME280;4062;49.844;8.120;2022-12-18T06:52:16;100605.56;;;12.99;55.61
8039;BME280;4062;49.844;8.120;2022-12-18T06:54:17;100606.44;;;12.98;55.61
8039;BME280;4062;49.844;8.120;2022-12-18T06:56:17;100609.09;;;12.98;55.63
8039;BME280;4062;49.844;8.120;2022-12-18T06:58:18;100609.09;;;12.98;55.73
8039;BME280;4062;49.844;8.120;2022-12-18T07:00:19;100606.44;;;12.98;55.55
8039;BME280;4062;49.844;8.120;2022-12-18T07:02:20;100604.66;;;12.98;55.66
8039;BME280;4062;49.844;8.120;2022-12-18T07:04:20;100606.44;;;12.98;55.74
8039;BME280;4062;49.844;8.120;2022-12-18T07:06:25;100603.78;;;12.96;55.61
8039;BME280;4062;49.844;8.120;2022-12-18T07:08:26;100611.75;;;12.98;55.63
8039;BME280;4062;49.844;8.120;2022-12-18T07:10:26;100607.31;;;12.98;55.73
8039;BME280;4062;49.844;8.120;2022-12-18T07:12:27;100602.91;;;12.99;55.52
8039;BME280;4062;49.844;8.120;2022-12-18T07:14:28;100598.41;;;13.01;55.51
8039;BME280;4062;49.844;8.120;2022-12-18T07:16:29;100599.31;;;13.00;55.39
8039;BME280;4062;49.844;8.120;2022-12-18T07:18:29;100602.88;;;13.01;55.54
8039;BME280;4062;49.844;8.120;2022-12-18T07:20:30;100598.41;;;13.01;55.70
8039;BME280;4062;49.844;8.120;2022-12-18T07:22:31;100594.91;;;13.01;55.55
8039;BME280;4062;49.844;8.120;2022-12-18T07:24:33;100597.59;;;12.99;55.41
8039;BME280;4062;49.844;8.120;2022-12-18T07:26:34;100595.81;;;13.00;55.54
8039;BME280;4062;49.844;8.120;2022-12-18T07:28:37;100607.28;;;13.00;55.48
8039;BME280;4062;49.844;8.120;2022-12-18T07:30:38;100609.06;;;13.00;55.57
8039;BME280;4062;49.844;8.120;2022-12-18T07:32:39;100608.97;;;13.06;55.19
8039;BME280;4062;49.844;8.120;2022-12-18T07:34:39;100610.78;;;13.04;55.10
8039;BME280;4062;49.844;8.120;2022-12-18T07:36:40;100609.91;;;13.03;55.52
8039;BME280;4062;49.844;8.120;2022-12-18T07:38:41;100613.44;;;13.02;55.24
8039;BME280;4062;49.844;8.120;2022-12-18T07:40:42;100618.78;;;13.01;55.17
8039;BME280;4062;49.844;8.120;2022-12-18T07:42:43;100615.25;;;13.00;55.38
8039;BME280;4062;49.844;8.120;2022-12-18T07:44:43;100616.13;;;13.01;55.29
8039;BME280;4062;49.844;8.120;2022-12-18T07:46:44;100615.25;;;13.00;55.44
8039;BME280;4062;49.844;8.120;2022-12-18T07:48:45;100619.69;;;13.00;55.45
8039;BME280;4062;49.844;8.120;2022-12-18T07:50:46;100626.78;;;12.99;55.11
8039;BME280;4062;49.844;8.120;2022-12-18T07:52:47;100623.22;;;12.98;55.53
8039;BME280;4062;49.844;8.120;2022-12-18T07:54:47;100623.22;;;12.98;55.37
8039;BME280;4062;49.844;8.120;2022-12-18T07:56:51;100626.75;;;13.01;55.41
8039;BME280;4062;49.844;8.120;2022-12-18T07:58:52;100631.19;;;12.98;55.25
8039;BME280;4062;49.844;8.120;2022-12-18T08:00:53;100633.84;;;12.98;55.45
8039;BME280;4062;49.844;8.120;2022-12-18T08:02:53;100628.53;;;12.98;55.55
8039;BME280;4062;49.844;8.120;2022-12-18T08:04:54;100629.41;;;13.01;55.36
8039;BME280;4062;49.844;8.120;2022-12-18T08:06:55;100629.44;;;12.99;55.33
8039;BME280;4062;49.844;8.120;2022-12-18T08:08:56;100620.53;;;13.00;55.57
8039;BME280;4062;49.844;8.120;2022-12-18T08:10:58;100622.38;;;12.98;55.32
8039;BME280;4062;49.844;8.120;2022-12-18T08:12:58;100627.66;;;12.98;55.43
8039;BME280;4062;49.844;8.120;2022-12-18T08:14:59;100622.38;;;12.98;55.50
8039;BME280;4062;49.844;8.120;2022-12-18T08:17:00;100625.03;;;12.98;55.48
8039;BME280;4062;49.844;8.120;2022-12-18T08:19:00;100631.19;;;12.98;55.50
8039;BME280;4062;49.844;8.120;2022-12-18T08:21:29;100627.66;;;12.98;55.52
8039;BME280;4062;49.844;8.120;2022-12-18T08:23:30;100627.66;;;12.98;55.61
8039;BME280;4062;49.844;8.120;2022-12-18T08:25:31;100625.03;;;12.98;55.57
8039;BME280;4062;49.844;8.120;2022-12-18T08:27:32;100619.72;;;12.98;55.55
8039;BME280;4062;49.844;8.120;2022-12-18T08:29:32;100613.50;;;12.97;55.46
8039;BME280;4062;49.844;8.120;2022-12-18T08:31:34;100614.41;;;12.96;55.64
8039;BME280;4062;49.844;8.120;2022-12-18T08:33:36;100608.25;;;12.96;55.62
8039;BME280;4062;49.844;8.120;2022-12-18T08:35:38;100609.09;;;12.98;55.39
8039;BME280;4062;49.844;8.120;2022-12-18T08:37:38;100604.66;;;12.98;55.39
8039;BME280;4062;49.844;8.120;2022-12-18T08:39:39;100615.28;;;12.98;55.58
8039;BME280;4062;49.844;8.120;2022-12-18T08:41:40;100609.09;;;12.98;55.55
8039;BME280;4062;49.844;8.120;2022-12-18T08:43:41;100614.38;;;13.00;55.55
8039;BME280;4062;49.844;8.120;2022-12-18T08:46:00;100602.91;;;12.99;55.45
8039;BME280;4062;49.844;8.120;2022-12-18T08:48:01;100594.06;;;12.97;55.30
8039;BME280;4062;49.844;8.120;2022-12-18T08:50:02;100599.34;;;12.98;55.48
8039;BME280;4062;49.844;8.120;2022-12-18T08:52:03;100587.00;;;12.96;55.49
8039;BME280;4062;49.844;8.120;2022-12-18T08:54:04;100592.28;;;12.99;55.61
8039;BME280;4062;49.844;8.120;2022-12-18T08:56:06;100585.22;;;12.98;55.56
8039;BME280;4062;49.844;8.120;2022-12-18T08:58:06;100571.97;;;12.96;55.68
8039;BME280;4062;49.844;8.120;2022-12-18T09:00:08;100583.47;;;12.97;55.46
8039;BME280;4062;49.844;8.120;2022-12-18T09:02:12;100579.06;;;12.96;55.53
8039;BME280;4062;49.844;8.120;2022-12-18T09:04:13;100581.69;;;12.97;55.63
8039;BME280;4062;49.844;8.120;2022-12-18T09:06:19;100595.84;;;12.98;55.36
8039;BME280;4062;49.844;8.120;2022-12-18T09:08:20;100597.59;;;12.99;55.54
8039;BME280;4062;49.844;8.120;2022-12-18T09:10:20;100600.25;;;12.99;55.34
8039;BME280;4062;49.844;8.120;2022-12-18T09:12:21;100611.75;;;12.98;55.46
8039;BME280;4062;49.844;8.120;2022-12-18T09:14:22;100604.66;;;12.98;55.54
8039;BME280;4062;49.844;8.120;2022-12-18T09:16:24;100600.25;;;12.97;55.46
8039;BME280;4062;49.844;8.120;2022-12-18T09:18:25;100603.78;;;12.96;55.44
8039;BME280;4062;49.844;8.120;2022-12-18T09:20:26;100602.00;;;12.98;55.46
8039;BME280;4062;49.844;8.120;2022-12-18T09:22:28;100609.97;;;12.98;55.68
8039;BME280;4062;49.844;8.120;2022-12-18T09:24:29;100602.91;;;12.99;55.41
8039;BME280;4062;49.844;8.120;2022-12-18T09:26:30;100620.53;;;13.00;55.37
8039;BME280;4062;49.844;8.120;2022-12-18T09:28:30;100622.38;;;12.98;55.30
8039;BME280;4062;49.844;8.120;2022-12-18T09:30:31;100622.38;;;12.98;55.46
8039;BME280;4062;49.844;8.120;2022-12-18T09:32:33;100629.44;;;12.99;55.52
8039;BME280;4062;49.844;8.120;2022-12-18T09:34:34;100623.22;;;12.98;55.53
8039;BME280;4062;49.844;8.120;2022-12-18T09:36:35;100626.78;;;12.97;55.36
8039;BME280;4062;49.844;8.120;2022-12-18T09:38:36;100619.72;;;12.96;55.48
8039;BME280;4062;49.844;8.120;2022-12-18T09:40:46;100623.25;;;12.97;55.53
8039;BME280;4062;49.844;8.120;2022-12-18T09:43:00;100626.78;;;12.99;55.50
8039;BME280;4062;49.844;8.120;2022-12-18T09:45:03;100626.78;;;12.97;55.19
8039;BME280;4062;49.844;8.120;2022-12-18T09:49:29;100616.16;;;12.97;55.50
8039;BME280;4062;49.844;8.120;2022-12-18T09:52:00;100624.16;;;12.96;55.43
8039;BME280;4062;49.844;8.120;2022-12-18T09:54:07;100627.66;;;12.98;55.68
8039;BME280;4062;49.844;8.120;2022-12-18T09:56:20;100628.56;;;12.97;55.34
8039;BME280;4062;49.844;8.120;2022-12-18T10:00:29;100624.16;;;12.96;55.50
8039;BME280;4062;49.844;8.120;2022-12-18T10:02:30;100621.50;;;12.96;55.48
8039;BME280;4062;49.844;8.120;2022-12-18T10:04:32;100627.66;;;12.98;55.50
8039;BME280;4062;49.844;8.120;2022-12-18T10:06:58;100630.31;;;12.98;55.56
8039;BME280;4062;49.844;8.120;2022-12-18T10:09:31;100623.22;;;12.98;55.40
8039;BME280;4062;49.844;8.120;2022-12-18T10:14:47;100619.72;;;12.98;55.33
8039;BME280;4062;49.844;8.120;2022-12-18T10:26:14;100606.44;;;12.98;55.30
8039;BME280;4062;49.844;8.120;2022-12-18T10:28:17;100610.84;;;12.99;55.27
8039;BME280;4062;49.844;8.120;2022-12-18T10:30:22;100602.00;;;12.98;55.33
8039;BME280;4062;49.844;8.120;2022-12-18T10:32:27;100596.69;;;12.98;55.26
8039;BME280;4062;49.844;8.120;2022-12-18T10:34:29;100594.03;;;12.98;55.27
8039;BME280;4062;49.844;8.120;2022-12-18T10:36:29;100598.50;;;12.98;55.18
8039;BME280;4062;49.844;8.120;2022-12-18T10:38:32;100600.25;;;12.97;55.35
8039;BME280;4062;49.844;8.120;2022-12-18T10:40:58;100607.34;;;12.97;55.33
8039;BME280;4062;49.844;8.120;2022-12-18T10:43:09;100611.72;;;13.00;55.18
8039;BME280;4062;49.844;8.120;2022-12-18T10:45:16;100608.22;;;12.99;55.37
8039;BME280;4062;49.844;8.120;2022-12-18T10:47:20;100609.97;;;12.98;55.39
8039;BME280;4062;49.844;8.120;2022-12-18T10:49:27;100609.09;;;12.98;55.41
8039;BME280;4062;49.844;8.120;2022-12-18T10:51:34;100614.38;;;13.00;55.43
8039;BME280;4062;49.844;8.120;2022-12-18T10:53:37;100611.72;;;13.00;55.32
8039;BME280;4062;49.844;8.120;2022-12-18T10:55:40;100615.31;;;12.97;55.40
8039;BME280;4062;49.844;8.120;2022-12-18T10:57:45;100619.72;;;12.96;55.48
8039;BME280;4062;49.844;8.120;2022-12-18T10:59:53;100617.06;;;12.98;55.29
8039;BME280;4062;49.844;8.120;2022-12-18T11:01:57;100617.06;;;12.98;55.39
8039;BME280;4062;49.844;8.120;2022-12-18T11:04:02;100613.50;;;12.99;55.60
8039;BME280;4062;49.844;8.120;2022-12-18T11:06:14;100614.38;;;13.00;55.31
8039;BME280;4062;49.844;8.120;2022-12-18T11:08:21;100613.50;;;12.99;55.38
8039;BME280;4062;49.844;8.120;2022-12-18T11:10:37;100611.75;;;12.98;55.36
8039;BME280;4062;49.844;8.120;2022-12-18T11:12:38;100614.41;;;12.96;55.53
8039;BME280;4062;49.844;8.120;2022-12-18T11:14:45;100617.91;;;12.98;55.46
8039;BME280;4062;49.844;8.120;2022-12-18T11:16:49;100619.72;;;12.98;55.42
8039;BME280;4062;49.844;8.120;2022-12-18T11:18:50;100615.31;;;12.97;55.49
8039;BME280;4062;49.844;8.120;2022-12-18T11:20:57;100610.84;;;12.99;55.55
8039;BME280;4062;49.844;8.120;2022-12-18T11:23:06;100616.16;;;12.97;55.39
8039;BME280;4062;49.844;8.120;2022-12-18T11:27:18;100621.47;;;12.99;55.26
8039;BME280;4062;49.844;8.120;2022-12-18T11:29:36;100606.44;;;12.98;55.24
8039;BME280;4062;49.844;8.120;2022-12-18T11:31:37;100609.06;;;13.00;55.16
8039;BME280;4062;49.844;8.120;2022-12-18T11:33:41;100609.97;;;12.98;55.53
8039;BME280;4062;49.844;8.120;2022-12-18T11:35:55;100609.09;;;12.98;55.48
8039;BME280;4062;49.844;8.120;2022-12-18T11:38:50;100611.75;;;12.98;55.42
8039;BME280;4062;49.844;8.120;2022-12-18T11:40:36;100610.84;;;12.97;55.43